KOWB/OWB METAR and TAF weather

Enter ICAO airport designator
Station Type Date Time Source
KOWB METAR 2020/01/18 12:56 UTC NOAA

KOWB 181256Z 19019G27KT 10SM OVC039 11/04 A2994 RMK AO2 PK WND 18028/1211 RAE40 SLP142 P0000 T01060039


Station Type Date Time Source
KOWB Decoded METAR 2020/01/18 12:56 UTC NOAA

Owensboro, Owensboro-Daviess County Airport, KY, United States (KOWB) 37-44-24N 087-10-00W
Jan 18, 2020 - 07:56 AM EST / 2020.01.18 1256 UTC
Wind: from the S (190 degrees) at 22 MPH (19 KT) gusting to 31 MPH (27 KT):0
Visibility: 10 mile(s):0
Sky conditions: overcast
Precipitation last hour: A trace
Temperature: 51.1 F (10.6 C)
Dew Point: 39.0 F (3.9 C)
Relative Humidity: 63%
Pressure (altimeter): 29.94 in. Hg (1013 hPa)
ob: KOWB 181256Z 19019G27KT 10SM OVC039 11/04 A2994 RMK AO2 PK WND 18028/1211 RAE40 SLP142 P0000 T01060039
cycle: 13

Station Type Date Time Source
KOWB TAF 2020/01/18 12:42 UTC NOAA

TAF KOWB 181140Z 1812/1912 18021KT P6SM SHRA OVC035
FM181300 19020G29KT P6SM SHRA OVC025
FM181700 23019G30KT P6SM VCSH OVC012
FM181900 26018G29KT P6SM OVC020
FM182300 29018G27KT P6SM OVC025

Example: see airport list